Sarov, Russia
Current Conditions -  °F | °C
As of 10:30 AM on Saturday 25 Oct 2014 (Local Time) from UWGG Reporting Station
Clear Clear  
Wind Chill: 11°   Ceiling: Unl
Heat Index: 19°   Visibility: 6mi
Dew Point: 12°   Wind: 7mph
Humidity: 74%   Direction: 300°WNW
Pressure: 30.59"   Gusts: NA
Location:  54.93°N, 43.33°E
Report Text: UWGG 250730Z 30003MPS CAVOK M07/M11 Q1036 NOSIG 36410145 RMKQFE770
Loading
Personal Weather Stations






























Interactive Weather Map
Tropical Storm Tracking
New forecast layout! Learn more

10-Day Weather Forecast

Advertisements
Track Severe Weather on mobile